createdAt,value
2023-05-02T00:10:55.206Z,0
2023-05-02T00:25:51.311Z,0
2023-05-02T00:40:47.354Z,0
2023-05-02T00:55:43.707Z,0
2023-05-02T01:10:39.533Z,0
2023-05-02T01:25:36.147Z,0
2023-05-02T01:40:32.812Z,0
2023-05-02T01:55:28.615Z,0
2023-05-02T02:10:25.265Z,0
2023-05-02T02:40:18.972Z,0
2023-05-02T02:55:14.977Z,0
2023-05-02T03:25:06.413Z,0
2023-05-02T03:40:02.564Z,0.01
2023-05-02T03:54:58.670Z,0
2023-05-02T04:09:54.395Z,0.02
2023-05-02T04:24:50.646Z,0.02
2023-05-02T04:39:47.132Z,0.03
2023-05-02T04:54:43.303Z,0.02
2023-05-02T05:09:39.986Z,0.02
2023-05-02T05:24:36.377Z,0.03
2023-05-02T05:39:32.988Z,0.03
2023-05-02T05:54:29.476Z,0.03
2023-05-02T06:09:26.135Z,0.04
2023-05-02T06:24:22.451Z,0.05
2023-05-02T08:08:58.244Z,0.09
2023-05-02T08:23:54.612Z,0.1
2023-05-02T10:23:25.327Z,0.12
2023-05-02T10:38:22.491Z,0.07
2023-05-02T10:53:17.135Z,0.12
2023-05-02T11:08:13.102Z,0.24
2023-05-02T11:23:10.168Z,0.19
2023-05-02T11:38:07.228Z,0.3
2023-05-02T11:53:03.621Z,0.16
2023-05-02T12:07:59.803Z,0.61
2023-05-02T12:22:57.273Z,0.44
2023-05-02T12:37:52.889Z,0.11
2023-05-02T12:52:49.377Z,0.69
2023-05-02T13:07:46.038Z,0.32
2023-05-02T13:22:42.153Z,0.38
2023-05-02T13:37:38.679Z,0.7
2023-05-02T13:52:34.509Z,0.37
2023-05-02T14:07:30.691Z,0.2
2023-05-02T14:22:26.118Z,0.26
2023-05-02T14:37:22.395Z,0.31
2023-05-02T14:52:18.461Z,0.7
2023-05-02T15:07:14.992Z,0.22
2023-05-02T15:37:07.768Z,0.39
2023-05-02T15:52:03.810Z,0.2
2023-05-02T16:06:59.533Z,0.2
2023-05-02T16:21:55.351Z,0.11
2023-05-02T16:36:51.557Z,0.13
2023-05-02T16:51:47.789Z,0.15
2023-05-02T17:06:44.379Z,0.13
2023-05-02T17:21:40.388Z,0.1
2023-05-02T17:36:36.073Z,0.08
2023-05-02T17:51:32.228Z,0.07
2023-05-02T18:06:28.009Z,0.05
2023-05-02T18:21:23.471Z,0.05
2023-05-02T18:36:19.025Z,0.04
2023-05-02T18:51:14.694Z,0.02
2023-05-02T19:06:10.374Z,0.02
2023-05-02T19:21:06.026Z,0.02
2023-05-02T19:36:01.714Z,0
2023-05-02T19:50:58.005Z,0
2023-05-02T20:05:54.167Z,0
2023-05-02T20:20:49.987Z,0
2023-05-02T20:35:45.572Z,0
2023-05-02T20:50:41.495Z,0
2023-05-02T21:05:37.153Z,0
2023-05-02T21:20:33.015Z,0
2023-05-02T21:35:28.956Z,0.01
2023-05-02T21:50:24.957Z,0
2023-05-02T22:05:21.091Z,0
2023-05-02T22:20:17.350Z,0
2023-05-02T22:35:13.657Z,0
2023-05-02T22:50:10.230Z,0
2023-05-02T23:05:06.058Z,0
2023-05-02T23:20:02.544Z,0
2023-05-02T23:34:58.582Z,0
2023-05-02T23:49:55.054Z,0.01
